sensor_id;sensor_type;location;lat;lon;timestamp;pressure;altitude;pressure_sealevel;temperature;humidity
72120;BME280;59993;53.052;18.576;2022-07-23T00:02:21;100884.22;;;18.93;92.11
72120;BME280;59993;53.052;18.576;2022-07-23T00:04:47;100889.66;;;18.83;92.81
72120;BME280;59993;53.052;18.576;2022-07-23T00:07:12;100885.19;;;18.74;93.01
72120;BME280;59993;53.052;18.576;2022-07-23T00:09:38;100889.03;;;18.54;93.48
72120;BME280;59993;53.052;18.576;2022-07-23T00:12:04;100886.81;;;18.67;92.97
72120;BME280;59993;53.052;18.576;2022-07-23T00:14:29;100889.28;;;18.60;92.11
72120;BME280;59993;53.052;18.576;2022-07-23T00:16:55;100888.81;;;18.47;93.89
72120;BME280;59993;53.052;18.576;2022-07-23T00:19:20;100891.72;;;18.36;94.37
72120;BME280;59993;53.052;18.576;2022-07-23T00:21:45;100890.34;;;18.32;95.03
72120;BME280;59993;53.052;18.576;2022-07-23T00:24:11;100888.88;;;18.55;93.19
72120;BME280;59993;53.052;18.576;2022-07-23T00:26:36;100893.97;;;18.40;93.86
72120;BME280;59993;53.052;18.576;2022-07-23T00:29:02;100887.97;;;18.28;93.99
72120;BME280;59993;53.052;18.576;2022-07-23T00:31:27;100892.78;;;18.25;94.29
72120;BME280;59993;53.052;18.576;2022-07-23T00:33:53;100892.03;;;18.33;94.37
72120;BME280;59993;53.052;18.576;2022-07-23T00:36:22;100886.56;;;18.24;93.77
72120;BME280;59993;53.052;18.576;2022-07-23T00:38:49;100891.78;;;18.26;93.31
72120;BME280;59993;53.052;18.576;2022-07-23T00:41:14;100883.66;;;18.18;94.10
72120;BME280;59993;53.052;18.576;2022-07-23T00:43:40;100890.94;;;18.25;93.36
72120;BME280;59993;53.052;18.576;2022-07-23T00:46:05;100884.50;;;18.18;93.41
72120;BME280;59993;53.052;18.576;2022-07-23T00:48:31;100885.47;;;18.17;94.32
72120;BME280;59993;53.052;18.576;2022-07-23T00:50:57;100891.63;;;18.27;93.93
72120;BME280;59993;53.052;18.576;2022-07-23T00:53:22;100887.56;;;18.23;93.03
72120;BME280;59993;53.052;18.576;2022-07-23T00:55:48;100884.72;;;18.07;92.99
72120;BME280;59993;53.052;18.576;2022-07-23T00:58:15;100891.03;;;17.78;95.61
72120;BME280;59993;53.052;18.576;2022-07-23T01:00:41;100884.03;;;17.67;95.65
72120;BME280;59993;53.052;18.576;2022-07-23T01:03:06;100885.00;;;17.66;95.86
72120;BME280;59993;53.052;18.576;2022-07-23T01:05:32;100888.13;;;17.62;95.27
72120;BME280;59993;53.052;18.576;2022-07-23T01:07:58;100879.97;;;17.53;95.73
72120;BME280;59993;53.052;18.576;2022-07-23T01:10:24;100888.16;;;17.52;95.78
72120;BME280;59993;53.052;18.576;2022-07-23T01:12:57;100883.66;;;17.52;95.91
72120;BME280;59993;53.052;18.576;2022-07-23T01:15:23;100885.03;;;17.56;94.73
72120;BME280;59993;53.052;18.576;2022-07-23T01:17:49;100891.28;;;17.47;95.13
72120;BME280;59993;53.052;18.576;2022-07-23T01:20:14;100888.75;;;17.46;95.69
72120;BME280;59993;53.052;18.576;2022-07-23T01:22:40;100877.13;;;17.55;95.28
72120;BME280;59993;53.052;18.576;2022-07-23T01:25:06;100880.84;;;17.44;95.68
72120;BME280;59993;53.052;18.576;2022-07-23T01:27:31;100886.41;;;17.33;96.07
72120;BME280;59993;53.052;18.576;2022-07-23T01:29:57;100881.19;;;17.21;96.85
72120;BME280;59993;53.052;18.576;2022-07-23T01:32:24;100882.34;;;17.09;96.53
72120;BME280;59993;53.052;18.576;2022-07-23T01:34:50;100875.03;;;17.11;96.98
72120;BME280;59993;53.052;18.576;2022-07-23T01:37:15;100874.75;;;17.14;96.95
72120;BME280;59993;53.052;18.576;2022-07-23T01:39:41;100879.81;;;17.17;96.91
72120;BME280;59993;53.052;18.576;2022-07-23T01:42:06;100877.13;;;17.17;96.28
72120;BME280;59993;53.052;18.576;2022-07-23T01:44:32;100871.88;;;17.26;95.78
72120;BME280;59993;53.052;18.576;2022-07-23T01:46:57;100872.34;;;17.01;95.87
72120;BME280;59993;53.052;18.576;2022-07-23T01:49:23;100872.50;;;17.00;95.63
72120;BME280;59993;53.052;18.576;2022-07-23T01:51:48;100863.34;;;16.93;96.93
72120;BME280;59993;53.052;18.576;2022-07-23T01:54:30;100856.84;;;16.85;97.09
72120;BME280;59993;53.052;18.576;2022-07-23T01:56:56;100868.00;;;16.91;96.67
72120;BME280;59993;53.052;18.576;2022-07-23T01:59:22;100868.28;;;16.87;96.96
72120;BME280;59993;53.052;18.576;2022-07-23T02:01:48;100865.47;;;16.79;96.73
72120;BME280;59993;53.052;18.576;2022-07-23T02:04:16;100869.41;;;16.75;97.01
72120;BME280;59993;53.052;18.576;2022-07-23T02:06:42;100866.31;;;16.90;96.77
72120;BME280;59993;53.052;18.576;2022-07-23T02:09:07;100860.66;;;16.93;95.97
72120;BME280;59993;53.052;18.576;2022-07-23T02:11:33;100862.63;;;16.71;96.62
72120;BME280;59993;53.052;18.576;2022-07-23T02:13:59;100862.91;;;16.68;97.24
72120;BME280;59993;53.052;18.576;2022-07-23T02:16:24;100861.78;;;16.61;97.99
72120;BME280;59993;53.052;18.576;2022-07-23T02:18:49;100863.19;;;16.65;97.10
72120;BME280;59993;53.052;18.576;2022-07-23T02:21:15;100864.88;;;16.76;97.04
72120;BME280;59993;53.052;18.576;2022-07-23T02:23:40;100858.13;;;16.81;95.40
72120;BME280;59993;53.052;18.576;2022-07-23T02:26:06;100853.03;;;16.68;95.84
72120;BME280;59993;53.052;18.576;2022-07-23T02:28:31;100853.06;;;16.49;97.18
72120;BME280;59993;53.052;18.576;2022-07-23T02:30:57;100851.63;;;16.35;96.82
72120;BME280;59993;53.052;18.576;2022-07-23T02:33:22;100853.91;;;16.49;96.90
72120;BME280;59993;53.052;18.576;2022-07-23T02:35:48;100851.34;;;16.38;97.36
72120;BME280;59993;53.052;18.576;2022-07-23T02:38:13;100859.25;;;16.30;97.76
72120;BME280;59993;53.052;18.576;2022-07-23T02:40:39;100859.81;;;16.24;98.59
72120;BME280;59993;53.052;18.576;2022-07-23T02:43:04;100861.06;;;16.20;97.67
72120;BME280;59993;53.052;18.576;2022-07-23T02:45:29;100859.94;;;16.12;97.71
72120;BME280;59993;53.052;18.576;2022-07-23T02:47:55;100860.03;;;16.11;97.53
72120;BME280;59993;53.052;18.576;2022-07-23T02:50:20;100857.50;;;16.09;98.19
72120;BME280;59993;53.052;18.576;2022-07-23T02:52:46;100853.63;;;16.33;96.53
72120;BME280;59993;53.052;18.576;2022-07-23T02:55:11;100849.41;;;16.40;96.33
72120;BME280;59993;53.052;18.576;2022-07-23T02:57:37;100859.00;;;16.43;96.18
72120;BME280;59993;53.052;18.576;2022-07-23T03:00:04;100858.28;;;16.31;95.59
72120;BME280;59993;53.052;18.576;2022-07-23T03:02:31;100859.75;;;16.04;97.13
72120;BME280;59993;53.052;18.576;2022-07-23T03:04:56;100860.59;;;15.95;98.11
72120;BME280;59993;53.052;18.576;2022-07-23T03:07:22;100867.19;;;15.91;97.62
72120;BME280;59993;53.052;18.576;2022-07-23T03:09:47;100861.97;;;15.89;97.65
72120;BME280;59993;53.052;18.576;2022-07-23T03:12:13;100859.63;;;15.96;97.14
72120;BME280;59993;53.052;18.576;2022-07-23T03:14:39;100862.56;;;15.93;97.21
72120;BME280;59993;53.052;18.576;2022-07-23T03:17:04;100860.75;;;16.03;96.16
72120;BME280;59993;53.052;18.576;2022-07-23T03:19:30;100865.66;;;15.98;96.71
72120;BME280;59993;53.052;18.576;2022-07-23T03:21:55;100863.13;;;15.96;97.61
72120;BME280;59993;53.052;18.576;2022-07-23T03:24:21;100871.56;;;15.92;97.59
72120;BME280;59993;53.052;18.576;2022-07-23T03:26:49;100874.50;;;15.89;97.58
72120;BME280;59993;53.052;18.576;2022-07-23T03:29:14;100862.25;;;15.86;98.51
72120;BME280;59993;53.052;18.576;2022-07-23T03:31:40;100862.66;;;15.81;98.38
72120;BME280;59993;53.052;18.576;2022-07-23T03:34:05;100866.22;;;16.02;96.44
72120;BME280;59993;53.052;18.576;2022-07-23T03:36:31;100861.59;;;16.04;97.44
72120;BME280;59993;53.052;18.576;2022-07-23T03:38:56;100855.53;;;16.02;96.65
72120;BME280;59993;53.052;18.576;2022-07-23T03:41:22;100857.13;;;16.14;96.15
72120;BME280;59993;53.052;18.576;2022-07-23T03:43:47;100856.72;;;16.19;97.20
72120;BME280;59993;53.052;18.576;2022-07-23T03:46:13;100843.47;;;16.27;96.49
72120;BME280;59993;53.052;18.576;2022-07-23T03:48:38;100842.88;;;16.13;97.09
72120;BME280;59993;53.052;18.576;2022-07-23T03:51:04;100852.44;;;16.06;97.74
72120;BME280;59993;53.052;18.576;2022-07-23T03:53:29;100862.63;;;16.12;97.65
72120;BME280;59993;53.052;18.576;2022-07-23T03:55:55;100861.50;;;16.34;96.86
72120;BME280;59993;53.052;18.576;2022-07-23T03:58:20;100856.16;;;16.44;96.27
72120;BME280;59993;53.052;18.576;2022-07-23T04:00:46;100855.03;;;16.47;96.80
72120;BME280;59993;53.052;18.576;2022-07-23T04:03:12;100849.69;;;16.47;97.35
72120;BME280;59993;53.052;18.576;2022-07-23T04:05:37;100847.31;;;16.54;97.04
72120;BME280;59993;53.052;18.576;2022-07-23T04:08:03;100840.78;;;16.56;96.45
72120;BME280;59993;53.052;18.576;2022-07-23T04:10:28;100836.44;;;16.45;97.24
72120;BME280;59993;53.052;18.576;2022-07-23T04:12:54;100837.72;;;16.51;97.30
72120;BME280;59993;53.052;18.576;2022-07-23T04:15:19;100833.50;;;16.58;97.77
72120;BME280;59993;53.052;18.576;2022-07-23T04:17:44;100832.03;;;16.83;97.52
72120;BME280;59993;53.052;18.576;2022-07-23T04:20:12;100821.22;;;16.95;97.13
72120;BME280;59993;53.052;18.576;2022-07-23T04:22:38;100822.59;;;16.99;97.16
72120;BME280;59993;53.052;18.576;2022-07-23T04:25:04;100829.06;;;17.06;97.83
72120;BME280;59993;53.052;18.576;2022-07-23T04:27:29;100830.28;;;17.21;97.75
72120;BME280;59993;53.052;18.576;2022-07-23T04:29:55;100827.97;;;17.46;97.54
72120;BME280;59993;53.052;18.576;2022-07-23T04:32:21;100829.75;;;17.55;97.47
72120;BME280;59993;53.052;18.576;2022-07-23T04:34:46;100817.63;;;17.79;97.84
72120;BME280;59993;53.052;18.576;2022-07-23T04:37:11;100810.09;;;17.92;98.11
72120;BME280;59993;53.052;18.576;2022-07-23T04:39:37;100808.56;;;18.08;97.42
72120;BME280;59993;53.052;18.576;2022-07-23T04:42:02;100813.63;;;18.11;97.85
72120;BME280;59993;53.052;18.576;2022-07-23T04:44:28;100819.00;;;18.11;98.04
72120;BME280;59993;53.052;18.576;2022-07-23T04:46:53;100809.88;;;18.22;97.73
72120;BME280;59993;53.052;18.576;2022-07-23T04:49:19;100816.31;;;18.47;96.56
72120;BME280;59993;53.052;18.576;2022-07-23T04:51:45;100807.66;;;18.53;97.13
72120;BME280;59993;53.052;18.576;2022-07-23T04:54:10;100817.56;;;18.53;96.81
72120;BME280;59993;53.052;18.576;2022-07-23T04:56:35;100807.47;;;18.73;95.60
72120;BME280;59993;53.052;18.576;2022-07-23T04:59:01;100808.84;;;18.95;94.47
72120;BME280;59993;53.052;18.576;2022-07-23T05:01:27;100807.63;;;18.89;94.68
72120;BME280;59993;53.052;18.576;2022-07-23T05:03:52;100811.84;;;18.92;95.26
72120;BME280;59993;53.052;18.576;2022-07-23T05:06:18;100815.22;;;18.94;95.30
72120;BME280;59993;53.052;18.576;2022-07-23T05:08:43;100811.41;;;19.05;95.02
72120;BME280;59993;53.052;18.576;2022-07-23T05:11:09;100810.97;;;19.17;94.22
72120;BME280;59993;53.052;18.576;2022-07-23T05:13:34;100807.19;;;19.28;94.77
72120;BME280;59993;53.052;18.576;2022-07-23T05:16:00;100813.59;;;19.35;94.10
72120;BME280;59993;53.052;18.576;2022-07-23T05:18:25;100808.78;;;19.47;94.15
72120;BME280;59993;53.052;18.576;2022-07-23T05:20:51;100812.69;;;19.53;93.69
72120;BME280;59993;53.052;18.576;2022-07-23T05:23:16;100808.78;;;19.82;92.36
72120;BME280;59993;53.052;18.576;2022-07-23T05:25:41;100794.66;;;19.96;91.96
72120;BME280;59993;53.052;18.576;2022-07-23T05:28:07;100802.91;;;19.95;91.63
72120;BME280;59993;53.052;18.576;2022-07-23T05:30:32;100802.44;;;20.08;91.53
72120;BME280;59993;53.052;18.576;2022-07-23T05:32:58;100798.09;;;20.48;90.00
72120;BME280;59993;53.052;18.576;2022-07-23T05:35:23;100794.03;;;20.44;89.05
72120;BME280;59993;53.052;18.576;2022-07-23T05:37:49;100789.00;;;20.40;89.53
72120;BME280;59993;53.052;18.576;2022-07-23T05:40:14;100790.97;;;21.12;85.53
72120;BME280;59993;53.052;18.576;2022-07-23T05:42:40;100794.84;;;21.18;84.23
72120;BME280;59993;53.052;18.576;2022-07-23T05:45:08;100793.81;;;21.19;84.62
72120;BME280;59993;53.052;18.576;2022-07-23T05:47:44;100789.03;;;21.38;83.17
72120;BME280;59993;53.052;18.576;2022-07-23T05:50:10;100789.00;;;21.46;82.32
72120;BME280;59993;53.052;18.576;2022-07-23T05:52:36;100786.47;;;21.53;83.17
72120;BME280;59993;53.052;18.576;2022-07-23T05:55:02;100778.88;;;21.48;82.40
72120;BME280;59993;53.052;18.576;2022-07-23T05:57:27;100773.47;;;21.48;82.50
72120;BME280;59993;53.052;18.576;2022-07-23T05:59:53;100774.09;;;21.19;84.94
72120;BME280;59993;53.052;18.576;2022-07-23T06:02:18;100761.75;;;21.72;82.07
72120;BME280;59993;53.052;18.576;2022-07-23T06:04:44;100763.88;;;21.85;80.74
72120;BME280;59993;53.052;18.576;2022-07-23T06:07:09;100764.25;;;22.05;80.43
72120;BME280;59993;53.052;18.576;2022-07-23T06:09:35;100760.03;;;22.26;79.61
72120;BME280;59993;53.052;18.576;2022-07-23T06:12:00;100763.69;;;22.41;78.46
72120;BME280;59993;53.052;18.576;2022-07-23T06:14:25;100768.34;;;22.47;77.65
72120;BME280;59993;53.052;18.576;2022-07-23T06:16:51;100759.84;;;22.27;78.58
72120;BME280;59993;53.052;18.576;2022-07-23T06:19:16;100763.50;;;22.43;77.84
72120;BME280;59993;53.052;18.576;2022-07-23T06:21:42;100752.66;;;22.19;78.97
72120;BME280;59993;53.052;18.576;2022-07-23T06:24:08;100750.44;;;22.46;78.14
72120;BME280;59993;53.052;18.576;2022-07-23T06:26:34;100751.00;;;22.18;79.10
72120;BME280;59993;53.052;18.576;2022-07-23T06:28:59;100750.75;;;22.66;76.55
72120;BME280;59993;53.052;18.576;2022-07-23T06:31:24;100740.75;;;23.05;75.77
72120;BME280;59993;53.052;18.576;2022-07-23T06:33:50;100745.75;;;22.78;76.09
72120;BME280;59993;53.052;18.576;2022-07-23T06:36:15;100743.75;;;23.10;75.20
72120;BME280;59993;53.052;18.576;2022-07-23T06:38:41;100739.63;;;23.29;74.57
72120;BME280;59993;53.052;18.576;2022-07-23T06:41:06;100741.00;;;23.40;73.74
72120;BME280;59993;53.052;18.576;2022-07-23T06:43:32;100752.13;;;23.15;75.28
72120;BME280;59993;53.052;18.576;2022-07-23T06:45:57;100755.00;;;23.80;72.41
72120;BME280;59993;53.052;18.576;2022-07-23T06:48:23;100754.84;;;23.67;71.90
72120;BME280;59993;53.052;18.576;2022-07-23T06:50:48;100764.78;;;23.59;72.19
72120;BME280;59993;53.052;18.576;2022-07-23T06:53:14;100769.50;;;23.57;73.44
72120;BME280;59993;53.052;18.576;2022-07-23T06:55:39;100770.59;;;23.78;71.18
72120;BME280;59993;53.052;18.576;2022-07-23T06:58:05;100761.41;;;23.42;73.07
72120;BME280;59993;53.052;18.576;2022-07-23T07:00:31;100761.69;;;23.63;72.10
72120;BME280;59993;53.052;18.576;2022-07-23T07:02:57;100761.59;;;23.56;71.77
72120;BME280;59993;53.052;18.576;2022-07-23T07:05:24;100759.66;;;23.86;70.11
72120;BME280;59993;53.052;18.576;2022-07-23T07:07:53;100765.63;;;22.85;73.06
72120;BME280;59993;53.052;18.576;2022-07-23T07:10:19;100758.78;;;24.01;65.54
72120;BME280;59993;53.052;18.576;2022-07-23T07:12:44;100755.28;;;23.85;67.23
72120;BME280;59993;53.052;18.576;2022-07-23T07:15:10;100755.94;;;23.87;66.58
72120;BME280;59993;53.052;18.576;2022-07-23T07:17:36;100757.69;;;23.44;68.49
72120;BME280;59993;53.052;18.576;2022-07-23T07:20:02;100751.03;;;24.19;65.87
72120;BME280;59993;53.052;18.576;2022-07-23T07:22:27;100759.19;;;24.47;64.84
72120;BME280;59993;53.052;18.576;2022-07-23T07:24:53;100758.16;;;24.20;66.54
72120;BME280;59993;53.052;18.576;2022-07-23T07:27:18;100763.66;;;24.34;66.27
72120;BME280;59993;53.052;18.576;2022-07-23T07:29:44;100760.72;;;24.28;65.60
72120;BME280;59993;53.052;18.576;2022-07-23T07:32:09;100759.41;;;24.24;64.74
72120;BME280;59993;53.052;18.576;2022-07-23T07:34:35;100757.88;;;23.93;67.01
72120;BME280;59993;53.052;18.576;2022-07-23T07:37:00;100756.69;;;24.68;64.43
72120;BME280;59993;53.052;18.576;2022-07-23T07:39:26;100751.38;;;25.16;61.58
72120;BME280;59993;53.052;18.576;2022-07-23T07:41:51;100753.09;;;24.60;63.52
72120;BME280;59993;53.052;18.576;2022-07-23T07:44:17;100753.13;;;24.95;62.88
72120;BME280;59993;53.052;18.576;2022-07-23T07:46:42;100750.31;;;24.32;65.71
72120;BME280;59993;53.052;18.576;2022-07-23T07:49:07;100750.38;;;24.17;63.21
72120;BME280;59993;53.052;18.576;2022-07-23T07:51:33;100752.09;;;24.96;63.07
72120;BME280;59993;53.052;18.576;2022-07-23T07:54:00;100748.31;;;24.97;59.73
72120;BME280;59993;53.052;18.576;2022-07-23T07:56:26;100747.81;;;24.30;62.08
72120;BME280;59993;53.052;18.576;2022-07-23T07:58:52;100740.00;;;24.21;63.56
72120;BME280;59993;53.052;18.576;2022-07-23T08:01:17;100735.53;;;25.26;61.59
72120;BME280;59993;53.052;18.576;2022-07-23T08:03:44;100744.31;;;25.28;61.29
72120;BME280;59993;53.052;18.576;2022-07-23T08:06:09;100740.56;;;25.29;61.18
72120;BME280;59993;53.052;18.576;2022-07-23T08:08:35;100740.78;;;25.83;58.72
72120;BME280;59993;53.052;18.576;2022-07-23T08:11:00;100739.88;;;25.69;58.71
72120;BME280;59993;53.052;18.576;2022-07-23T08:13:26;100734.53;;;26.02;58.22
72120;BME280;59993;53.052;18.576;2022-07-23T08:15:51;100739.50;;;25.79;58.73
72120;BME280;59993;53.052;18.576;2022-07-23T08:18:18;100732.00;;;25.87;59.16
72120;BME280;59993;53.052;18.576;2022-07-23T08:20:44;100730.50;;;25.71;57.55
72120;BME280;59993;53.052;18.576;2022-07-23T08:23:09;100729.97;;;26.10;56.87
72120;BME280;59993;53.052;18.576;2022-07-23T08:25:40;100729.88;;;25.69;58.32
72120;BME280;59993;53.052;18.576;2022-07-23T08:28:10;100725.59;;;26.35;57.52
72120;BME280;59993;53.052;18.576;2022-07-23T08:30:38;100732.34;;;25.51;57.41
72120;BME280;59993;53.052;18.576;2022-07-23T08:35:33;100721.53;;;25.71;57.75
72120;BME280;59993;53.052;18.576;2022-07-23T08:38:02;100729.09;;;25.96;58.25
72120;BME280;59993;53.052;18.576;2022-07-23T08:40:30;100724.75;;;26.08;57.69
72120;BME280;59993;53.052;18.576;2022-07-23T08:42:56;100708.03;;;26.24;57.08
72120;BME280;59993;53.052;18.576;2022-07-23T08:45:23;100717.00;;;26.52;56.25
72120;BME280;59993;53.052;18.576;2022-07-23T08:47:51;100718.88;;;26.31;57.08
72120;BME280;59993;53.052;18.576;2022-07-23T08:50:16;100720.78;;;26.37;56.13
72120;BME280;59993;53.052;18.576;2022-07-23T08:52:42;100723.28;;;25.99;56.40
72120;BME280;59993;53.052;18.576;2022-07-23T08:55:08;100725.78;;;26.00;57.14
72120;BME280;59993;53.052;18.576;2022-07-23T08:57:34;100719.50;;;26.60;56.15
72120;BME280;59993;53.052;18.576;2022-07-23T08:59:59;100719.72;;;26.52;56.65
72120;BME280;59993;53.052;18.576;2022-07-23T09:02:25;100714.91;;;26.81;55.95
72120;BME280;59993;53.052;18.576;2022-07-23T09:04:50;100711.50;;;26.99;55.04
72120;BME280;59993;53.052;18.576;2022-07-23T09:07:16;100721.19;;;26.54;56.07
72120;BME280;59993;53.052;18.576;2022-07-23T09:09:41;100735.84;;;26.47;56.40
72120;BME280;59993;53.052;18.576;2022-07-23T09:12:09;100737.47;;;26.94;56.04
72120;BME280;59993;53.052;18.576;2022-07-23T09:14:40;100724.75;;;26.35;55.78
72120;BME280;59993;53.052;18.576;2022-07-23T09:17:16;100726.88;;;26.66;54.99
72120;BME280;59993;53.052;18.576;2022-07-23T09:19:44;100730.53;;;26.92;55.19
72120;BME280;59993;53.052;18.576;2022-07-23T09:22:23;100735.81;;;26.73;55.09
72120;BME280;59993;53.052;18.576;2022-07-23T09:25:14;100742.94;;;26.74;54.62
72120;BME280;59993;53.052;18.576;2022-07-23T09:30:22;100751.31;;;26.53;55.37
72120;BME280;59993;53.052;18.576;2022-07-23T09:35:55;100740.84;;;26.83;54.72
72120;BME280;59993;53.052;18.576;2022-07-23T09:38:23;100751.28;;;26.86;54.20
72120;BME280;59993;53.052;18.576;2022-07-23T09:41:10;100737.28;;;26.16;55.79
72120;BME280;59993;53.052;18.576;2022-07-23T09:43:38;100733.53;;;26.30;54.92
72120;BME280;59993;53.052;18.576;2022-07-23T09:46:23;100727.88;;;26.72;54.77
72120;BME280;59993;53.052;18.576;2022-07-23T09:48:51;100733.03;;;27.13;53.27
72120;BME280;59993;53.052;18.576;2022-07-23T09:51:17;100744.38;;;26.97;53.47
72120;BME280;59993;53.052;18.576;2022-07-23T09:54:01;100745.00;;;26.86;54.28
72120;BME280;59993;53.052;18.576;2022-07-23T09:56:28;100754.22;;;26.98;54.44
72120;BME280;59993;53.052;18.576;2022-07-23T09:58:54;100760.31;;;26.73;54.66
72120;BME280;59993;53.052;18.576;2022-07-23T10:01:38;100763.22;;;26.52;55.51
72120;BME280;59993;53.052;18.576;2022-07-23T10:04:04;100766.78;;;26.79;54.88
72120;BME280;59993;53.052;18.576;2022-07-23T10:06:30;100777.63;;;26.52;54.95
72120;BME280;59993;53.052;18.576;2022-07-23T10:08:58;100782.66;;;26.09;56.45
72120;BME280;59993;53.052;18.576;2022-07-23T10:11:25;100788.91;;;26.09;56.18
72120;BME280;59993;53.052;18.576;2022-07-23T10:13:53;100787.09;;;25.75;57.54
72120;BME280;59993;53.052;18.576;2022-07-23T10:16:23;100783.41;;;25.96;57.65
72120;BME280;59993;53.052;18.576;2022-07-23T10:18:49;100780.03;;;25.74;58.19
72120;BME280;59993;53.052;18.576;2022-07-23T10:21:20;100784.13;;;25.63;58.56
72120;BME280;59993;53.052;18.576;2022-07-23T10:23:58;100781.19;;;25.51;59.61
72120;BME280;59993;53.052;18.576;2022-07-23T10:35:10;100790.19;;;25.23;60.27
72120;BME280;59993;53.052;18.576;2022-07-23T10:37:39;100794.19;;;24.92;60.38
72120;BME280;59993;53.052;18.576;2022-07-23T10:40:22;100805.78;;;24.79;62.14
72120;BME280;59993;53.052;18.576;2022-07-23T10:42:52;100810.25;;;24.44;65.14
72120;BME280;59993;53.052;18.576;2022-07-23T10:45:32;100794.72;;;23.58;70.07
72120;BME280;59993;53.052;18.576;2022-07-23T10:48:25;100783.97;;;22.90;76.25
72120;BME280;59993;53.052;18.576;2022-07-23T10:59:04;100809.31;;;21.73;87.08
72120;BME280;59993;53.052;18.576;2022-07-23T11:01:38;100826.56;;;21.64;89.92
72120;BME280;59993;53.052;18.576;2022-07-23T11:04:05;100815.13;;;21.54;91.57
72120;BME280;59993;53.052;18.576;2022-07-23T11:15:03;100829.78;;;20.79;95.80
72120;BME280;59993;53.052;18.576;2022-07-23T11:17:31;100826.38;;;21.01;97.04
72120;BME280;59993;53.052;18.576;2022-07-23T11:22:40;100837.53;;;20.73;97.69
72120;BME280;59993;53.052;18.576;2022-07-23T11:25:13;100827.09;;;20.70;97.53
72120;BME280;59993;53.052;18.576;2022-07-23T11:27:40;100827.41;;;20.59;98.64
72120;BME280;59993;53.052;18.576;2022-07-23T11:30:12;100838.50;;;20.56;99.61
72120;BME280;59993;53.052;18.576;2022-07-23T11:35:35;100846.44;;;20.66;99.39
72120;BME280;59993;53.052;18.576;2022-07-23T11:38:21;100844.25;;;20.53;100.00
72120;BME280;59993;53.052;18.576;2022-07-23T11:40:52;100830.75;;;20.45;100.00
72120;BME280;59993;53.052;18.576;2022-07-23T11:43:18;100820.00;;;20.69;100.00
72120;BME280;59993;53.052;18.576;2022-07-23T11:45:46;100818.63;;;20.57;100.00
72120;BME280;59993;53.052;18.576;2022-07-23T11:48:22;100808.84;;;20.31;100.00
72120;BME280;59993;53.052;18.576;2022-07-23T11:50:50;100821.66;;;20.21;100.00
72120;BME280;59993;53.052;18.576;2022-07-23T11:53:30;100811.53;;;20.06;100.00
72120;BME280;59993;53.052;18.576;2022-07-23T11:56:07;100815.28;;;20.30;100.00
72120;BME280;59993;53.052;18.576;2022-07-23T11:58:33;100814.25;;;20.31;100.00
72120;BME280;59993;53.052;18.576;2022-07-23T12:00:59;100803.47;;;20.31;100.00
72120;BME280;59993;53.052;18.576;2022-07-23T12:03:25;100801.97;;;20.37;100.00
72120;BME280;59993;53.052;18.576;2022-07-23T12:05:59;100804.13;;;20.09;100.00
72120;BME280;59993;53.052;18.576;2022-07-23T12:08:25;100806.50;;;20.20;100.00
72120;BME280;59993;53.052;18.576;2022-07-23T12:10:50;100797.09;;;20.24;100.00
72120;BME280;59993;53.052;18.576;2022-07-23T12:13:18;100789.66;;;20.10;100.00
72120;BME280;59993;53.052;18.576;2022-07-23T12:15:46;100791.34;;;20.11;100.00
72120;BME280;59993;53.052;18.576;2022-07-23T12:18:18;100787.97;;;20.09;100.00
72120;BME280;59993;53.052;18.576;2022-07-23T12:20:52;100792.00;;;20.04;100.00
72120;BME280;59993;53.052;18.576;2022-07-23T12:23:20;100785.28;;;20.09;100.00
72120;BME280;59993;53.052;18.576;2022-07-23T12:25:48;100793.69;;;19.97;100.00
72120;BME280;59993;53.052;18.576;2022-07-23T12:28:17;100799.88;;;19.90;100.00
72120;BME280;59993;53.052;18.576;2022-07-23T12:30:45;100803.13;;;20.01;100.00
72120;BME280;59993;53.052;18.576;2022-07-23T12:33:13;100799.72;;;19.99;100.00
72120;BME280;59993;53.052;18.576;2022-07-23T12:35:44;100790.31;;;20.03;100.00
72120;BME280;59993;53.052;18.576;2022-07-23T12:38:22;100786.66;;;20.21;100.00
72120;BME280;59993;53.052;18.576;2022-07-23T12:48:39;100774.22;;;20.36;100.00
72120;BME280;59993;53.052;18.576;2022-07-23T12:51:14;100782.47;;;20.35;100.00
72120;BME280;59993;53.052;18.576;2022-07-23T12:53:42;100778.25;;;20.32;100.00
72120;BME280;59993;53.052;18.576;2022-07-23T12:56:13;100776.22;;;20.34;100.00
72120;BME280;59993;53.052;18.576;2022-07-23T12:58:55;100781.78;;;20.41;100.00
72120;BME280;59993;53.052;18.576;2022-07-23T13:01:24;100780.91;;;20.40;100.00
72120;BME280;59993;53.052;18.576;2022-07-23T13:04:11;100789.69;;;20.42;100.00
72120;BME280;59993;53.052;18.576;2022-07-23T13:06:57;100786.66;;;20.37;100.00
72120;BME280;59993;53.052;18.576;2022-07-23T13:09:28;100798.78;;;20.41;100.00
72120;BME280;59993;53.052;18.576;2022-07-23T13:11:55;100782.47;;;20.51;100.00
72120;BME280;59993;53.052;18.576;2022-07-23T13:14:22;100767.63;;;20.64;100.00
72120;BME280;59993;53.052;18.576;2022-07-23T13:16:50;100769.47;;;20.80;100.00
72120;BME280;59993;53.052;18.576;2022-07-23T13:19:16;100756.88;;;20.80;100.00
72120;BME280;59993;53.052;18.576;2022-07-23T13:21:42;100777.00;;;21.09;100.00
72120;BME280;59993;53.052;18.576;2022-07-23T13:24:08;100776.44;;;21.22;100.00
72120;BME280;59993;53.052;18.576;2022-07-23T13:26:34;100784.50;;;21.38;100.00